Time;durP1;ratioP1;P1;durP2;ratioP2;P2;SDS_P1;SDS_P2;PMS_P1;PMS_P2;Temp;Humidity;BMP_temperature;BMP_pressure;BME280_temperature;BME280_humidity;BME280_pressure;Samples;Min_cycle;Max_cycle;Signal;HPM_P1;HPM_P2
2022/11/14 00:00:34;;;;;;;20.93;14.03;;;;;;;15.82;43.98;101652.09;5050490;28;20417;-69
2022/11/14 00:03:05;;;;;;;23.17;14.47;;;;;;;15.60;44.25;101661.22;5049977;28;20075;-69
2022/11/14 00:05:31;;;;;;;21.70;13.60;;;;;;;15.56;43.76;101664.81;5051496;28;20033;-69
2022/11/14 00:07:56;;;;;;;20.07;13.43;;;;;;;15.56;44.24;101645.50;5083125;28;20036;-69
2022/11/14 00:10:22;;;;;;;21.33;13.83;;;;;;;15.61;44.29;101648.94;5054864;28;20056;-69
2022/11/14 00:12:48;;;;;;;23.53;14.30;;;;;;;15.47;44.30;101650.94;5051262;28;20486;-70
2022/11/14 00:15:13;;;;;;;18.20;13.07;;;;;;;14.95;44.99;101658.78;5052226;28;20040;-69
2022/11/14 00:17:39;;;;;;;21.03;13.37;;;;;;;15.46;44.35;101657.13;5049580;28;20035;-69
2022/11/14 00:20:06;;;;;;;20.33;13.27;;;;;;;15.49;44.15;101647.38;5049581;28;20039;-69
2022/11/14 00:22:32;;;;;;;18.33;13.10;;;;;;;15.24;44.80;101645.16;5049705;28;20025;-69
2022/11/14 00:24:57;;;;;;;23.43;14.43;;;;;;;15.76;43.31;101647.78;5050184;28;20031;-69
2022/11/14 00:27:23;;;;;;;21.50;13.47;;;;;;;15.27;43.86;101644.25;5048807;28;20033;-70
2022/11/14 00:29:48;;;;;;;18.43;13.40;;;;;;;15.60;43.65;101641.91;5048769;28;20402;-69
2022/11/14 00:32:14;;;;;;;18.60;13.03;;;;;;;15.83;43.30;101638.03;5049717;28;20025;-69
2022/11/14 00:34:39;;;;;;;19.47;12.70;;;;;;;15.48;43.70;101639.50;5050031;28;20478;-69
2022/11/14 00:37:04;;;;;;;19.93;12.50;;;;;;;15.13;44.57;101638.34;5051673;28;20029;-69
2022/11/14 00:39:30;;;;;;;20.80;13.17;;;;;;;15.28;43.94;101630.19;5049294;28;20029;-69
2022/11/14 00:41:55;;;;;;;19.43;13.00;;;;;;;15.15;44.65;101628.66;5046660;28;20036;-69
2022/11/14 00:44:21;;;;;;;17.47;11.97;;;;;;;14.89;45.03;101627.28;5049242;28;20028;-69
2022/11/14 00:46:46;;;;;;;19.53;12.33;;;;;;;15.29;44.84;101618.75;5050313;28;20021;-69
2022/11/14 00:49:11;;;;;;;22.77;12.97;;;;;;;15.31;43.96;101624.84;5049540;28;20036;-69
2022/11/14 00:51:36;;;;;;;20.80;12.77;;;;;;;15.49;43.71;101628.06;5082365;28;20025;-69
2022/11/14 00:54:02;;;;;;;19.40;12.30;;;;;;;15.24;43.48;101628.50;5050073;28;20033;-69
2022/11/14 00:56:27;;;;;;;16.57;11.93;;;;;;;15.29;44.08;101626.66;5049786;28;20032;-69
2022/11/14 00:58:53;;;;;;;19.17;12.68;;;;;;;15.29;43.21;101625.78;5011037;28;1097334;-69
2022/11/14 01:01:18;;;;;;;17.83;12.07;;;;;;;15.07;44.16;101616.47;5049396;28;20536;-69
2022/11/14 01:03:48;;;;;;;23.10;13.47;;;;;;;14.86;44.74;101614.19;5064994;28;20413;-69
2022/11/14 01:06:14;;;;;;;16.27;11.87;;;;;;;15.00;44.21;101614.84;5052332;28;20029;-69
2022/11/14 01:08:40;;;;;;;21.30;12.80;;;;;;;14.93;44.00;101597.38;5051627;28;20021;-69
2022/11/14 01:11:12;;;;;;;21.20;12.53;;;;;;;14.86;44.10;101607.16;5050319;28;20032;-69
2022/11/14 01:13:38;;;;;;;22.63;12.95;;;;;;;14.90;44.28;101602.72;5050439;28;20086;-69
2022/11/14 01:16:04;;;;;;;20.87;13.50;;;;;;;15.17;43.59;101600.53;5049449;28;20048;-69
2022/11/14 01:18:29;;;;;;;19.23;12.53;;;;;;;15.10;43.70;101605.88;5051027;28;20033;-69
2022/11/14 01:20:54;;;;;;;18.20;12.47;;;;;;;14.12;44.89;101604.66;5083300;28;20120;-69
2022/11/14 01:23:20;;;;;;;16.33;11.63;;;;;;;14.88;44.58;101594.84;5049182;28;20064;-69
2022/11/14 01:25:45;;;;;;;25.27;13.40;;;;;;;15.06;43.55;101588.41;5051446;28;20035;-68
2022/11/14 01:28:15;;;;;;;18.43;12.53;;;;;;;14.85;44.20;101591.38;5051831;28;20106;-69
2022/11/14 01:30:41;;;;;;;18.27;13.13;;;;;;;14.95;43.61;101594.72;5050669;28;20394;-69
2022/11/14 01:33:07;;;;;;;18.50;12.50;;;;;;;14.36;44.58;101593.81;5049880;28;20025;-69
2022/11/14 01:35:34;;;;;;;19.47;12.40;;;;;;;14.70;44.27;101589.84;5050382;28;20025;-69
2022/11/14 01:38:00;;;;;;;18.37;12.73;;;;;;;14.75;44.30;101573.13;5049872;28;20065;-69
2022/11/14 01:40:26;;;;;;;20.40;12.47;;;;;;;14.65;44.15;101570.66;5050402;28;20056;-69
2022/11/14 01:43:10;;;;;;;19.23;12.53;;;;;;;14.55;44.02;101573.38;5049950;28;20033;-69
2022/11/14 01:46:02;;;;;;;17.33;11.60;;;;;;;14.34;45.35;101566.69;5049935;28;20021;-69
2022/11/14 01:48:54;;;;;;;22.10;12.80;;;;;;;14.55;44.60;101559.38;5050309;28;20021;-69
2022/11/14 01:51:25;;;;;;;18.63;12.60;;;;;;;14.58;44.21;101554.06;5038484;28;20049;-69
2022/11/14 01:53:53;;;;;;;17.17;12.40;;;;;;;14.52;44.97;101560.28;5047536;28;20036;-69
2022/11/14 01:56:25;;;;;;;20.23;13.33;;;;;;;14.71;44.05;101555.66;5049967;28;20029;-69
2022/11/14 01:59:00;;;;;;;19.97;13.07;;;;;;;14.28;44.42;101555.38;5049379;28;20036;-69
2022/11/14 02:01:29;;;;;;;20.70;13.43;;;;;;;14.57;44.20;101539.16;5048357;28;20037;-69
2022/11/14 02:03:56;;;;;;;21.13;13.00;;;;;;;14.19;44.97;101537.94;5049201;28;20456;-69
2022/11/14 02:06:24;;;;;;;18.33;13.50;;;;;;;14.12;45.04;101533.69;5049077;28;20062;-69
2022/11/14 02:08:50;;;;;;;21.00;12.73;;;;;;;14.14;45.01;101526.66;5048980;28;20032;-69
2022/11/14 02:11:16;;;;;;;19.40;13.03;;;;;;;14.23;45.21;101526.50;5048541;28;20143;-69
2022/11/14 02:13:41;;;;;;;17.40;11.43;;;;;;;14.03;45.62;101525.03;5050407;28;20127;-69
2022/11/14 02:16:06;;;;;;;21.20;13.10;;;;;;;14.04;45.42;101515.38;5049968;28;20528;-68
2022/11/14 02:18:32;;;;;;;23.90;13.80;;;;;;;14.11;45.07;101518.78;5049004;28;20477;-69
2022/11/14 02:20:57;;;;;;;21.07;13.50;;;;;;;13.68;45.63;101518.47;5048340;28;20480;-69
2022/11/14 02:23:25;;;;;;;16.73;12.27;;;;;;;14.18;45.31;101508.19;5049627;28;20033;-69
2022/11/14 02:25:51;;;;;;;19.27;12.57;;;;;;;13.86;45.67;101506.84;5049693;28;20463;-69
2022/11/14 02:28:19;;;;;;;20.93;13.13;;;;;;;14.07;44.75;101505.69;5050031;28;20032;-69
2022/11/14 02:30:44;;;;;;;20.43;13.33;;;;;;;13.85;45.74;101506.88;5046782;28;20498;-69
2022/11/14 02:33:10;;;;;;;19.83;13.10;;;;;;;14.27;44.52;101495.78;5049684;28;20072;-69
2022/11/14 02:35:35;;;;;;;21.43;12.97;;;;;;;13.86;45.08;101490.22;5049935;28;20033;-69
2022/11/14 02:38:00;;;;;;;19.80;13.50;;;;;;;13.93;45.31;101502.41;5055303;28;20166;-69
2022/11/14 02:40:26;;;;;;;19.23;13.40;;;;;;;14.23;44.44;101494.94;5080515;28;20037;-68
2022/11/14 02:42:51;;;;;;;20.80;12.67;;;;;;;14.26;44.50;101494.94;5048369;28;20032;-69
2022/11/14 02:45:17;;;;;;;22.00;13.63;;;;;;;13.54;45.33;101500.22;5048100;28;20083;-68
2022/11/14 02:47:42;;;;;;;20.03;13.63;;;;;;;13.98;44.95;101494.44;5050128;28;20029;-69
2022/11/14 02:50:08;;;;;;;19.53;13.10;;;;;;;14.07;44.53;101489.06;5049794;28;20033;-69
2022/11/14 02:52:33;;;;;;;20.20;13.47;;;;;;;14.21;44.39;101488.84;5049698;28;20067;-69
2022/11/14 02:54:58;;;;;;;22.80;14.77;;;;;;;13.65;45.26;101492.22;5050016;28;20041;-69
2022/11/14 02:57:24;;;;;;;25.13;14.20;;;;;;;13.82;45.03;101488.50;5049369;28;20032;-69
2022/11/14 02:59:49;;;;;;;25.90;14.20;;;;;;;14.07;44.63;101484.66;5081823;28;20056;-69
2022/11/14 03:02:14;;;;;;;23.27;14.50;;;;;;;13.82;44.66;101483.25;5048463;28;20087;-69
2022/11/14 03:04:40;;;;;;;23.53;14.90;;;;;;;13.43;45.43;101486.34;5050556;28;20397;-69
2022/11/14 03:07:05;;;;;;;23.23;14.17;;;;;;;13.72;44.96;101475.50;5048693;28;20033;-69
2022/11/14 03:09:30;;;;;;;23.97;14.37;;;;;;;13.66;45.85;101472.94;5047456;28;20028;-69
2022/11/14 03:11:56;;;;;;;24.27;15.40;;;;;;;13.67;45.37;101469.44;5048564;28;20039;-69
2022/11/14 03:14:21;;;;;;;24.33;14.80;;;;;;;13.66;45.49;101470.31;5047836;28;20040;-69
2022/11/14 03:16:46;;;;;;;22.63;14.47;;;;;;;13.04;46.06;101460.50;5049800;28;20028;-69
2022/11/14 03:19:12;;;;;;;22.80;14.63;;;;;;;13.84;44.89;101465.72;5048061;28;20371;-69
2022/11/14 03:21:37;;;;;;;27.00;15.13;;;;;;;13.54;45.07;101458.19;5082016;28;20032;-68
2022/11/14 03:24:03;;;;;;;24.17;14.20;;;;;;;13.64;45.96;101458.09;5047395;28;20029;-69
2022/11/14 03:26:28;;;;;;;23.73;14.70;;;;;;;13.62;45.16;101452.88;5050876;28;20047;-68
2022/11/14 03:28:54;;;;;;;22.23;14.10;;;;;;;13.39;45.31;101446.16;5049099;28;20112;-69
2022/11/14 03:31:19;;;;;;;26.77;15.03;;;;;;;13.74;44.92;101450.06;5048539;28;20025;-69
2022/11/14 03:33:45;;;;;;;27.83;15.23;;;;;;;13.31;45.43;101450.59;5047227;28;20565;-69
2022/11/14 03:36:10;;;;;;;26.40;15.07;;;;;;;13.21;45.60;101460.31;5047476;28;20037;-69
2022/11/14 03:38:35;;;;;;;27.03;16.23;;;;;;;13.37;45.37;101458.41;5048304;28;20040;-69
2022/11/14 03:41:01;;;;;;;26.90;15.60;;;;;;;13.31;45.66;101452.31;5079289;28;20025;-69
2022/11/14 03:43:30;;;;;;;28.10;14.97;;;;;;;13.05;46.05;101470.13;5050414;28;20070;-69
2022/11/14 03:45:59;;;;;;;23.33;14.53;;;;;;;13.54;45.17;101462.59;5051494;28;20056;-68
2022/11/14 03:48:25;;;;;;;27.77;17.07;;;;;;;13.38;45.76;101468.03;5051528;28;20017;-69
2022/11/14 03:50:50;;;;;;;26.60;15.27;;;;;;;13.60;45.36;101457.28;5052270;28;20109;-69
2022/11/14 03:53:16;;;;;;;31.77;17.40;;;;;;;12.88;46.14;101466.78;5052055;28;20060;-69
2022/11/14 03:55:44;;;;;;;27.27;16.60;;;;;;;13.28;45.31;101466.34;5050984;28;20075;-69
2022/11/14 03:58:09;;;;;;;28.60;16.23;;;;;;;13.80;44.54;101464.03;5047125;28;20029;-69
2022/11/14 04:00:35;;;;;;;26.33;15.60;;;;;;;13.54;45.06;101457.34;5033285;28;20111;-69
2022/11/14 04:03:00;;;;;;;26.90;16.07;;;;;;;13.27;45.94;101459.38;5040661;28;20617;-69
2022/11/14 04:05:26;;;;;;;30.80;17.80;;;;;;;13.73;44.51;101450.97;5050274;28;20036;-69
2022/11/14 04:07:51;;;;;;;28.67;16.40;;;;;;;13.22;45.68;101455.94;5051301;28;20124;-69
2022/11/14 04:10:17;;;;;;;31.50;16.97;;;;;;;13.79;44.13;101451.78;5052169;28;20043;-69
2022/11/14 04:12:50;;;;;;;27.50;17.13;;;;;;;13.75;44.35;101445.69;5049825;28;20039;-69
2022/11/14 04:15:17;;;;;;;32.13;18.07;;;;;;;12.98;45.59;101447.44;5052490;28;20029;-69
2022/11/14 04:17:43;;;;;;;34.83;18.07;;;;;;;13.38;44.86;101433.91;5050932;28;20433;-69
2022/11/14 04:20:09;;;;;;;35.80;17.20;;;;;;;13.55;44.72;101432.81;5051623;28;20040;-69
2022/11/14 04:22:34;;;;;;;33.93;17.87;;;;;;;12.92;46.07;101437.00;5049976;28;20572;-69
2022/11/14 04:25:00;;;;;;;32.10;16.80;;;;;;;13.23;45.62;101426.19;5051898;28;20111;-69
2022/11/14 04:27:25;;;;;;;32.47;16.80;;;;;;;12.76;46.23;101427.53;5049695;28;20064;-69
2022/11/14 04:29:51;;;;;;;33.13;17.47;;;;;;;12.95;46.31;101421.22;5052521;28;20107;-68
2022/11/14 04:32:16;;;;;;;32.97;18.17;;;;;;;12.70;46.14;101424.09;5051414;28;20029;-68
2022/11/14 04:34:41;;;;;;;33.83;17.63;;;;;;;12.66;47.05;101427.63;5050617;28;20127;-69
2022/11/14 04:37:07;;;;;;;33.43;18.07;;;;;;;12.70;46.48;101423.22;5082340;28;20095;-69
2022/11/14 04:39:32;;;;;;;37.90;18.33;;;;;;;13.23;45.54;101418.31;5047847;28;20064;-68
2022/11/14 04:41:57;;;;;;;34.07;18.87;;;;;;;13.24;45.33;101407.78;5051563;28;20068;-68
2022/11/14 04:44:23;;;;;;;37.47;18.97;;;;;;;13.20;45.38;101410.44;5049975;28;20037;-69
2022/11/14 04:46:48;;;;;;;34.10;19.07;;;;;;;12.56;46.87;101405.00;5049134;28;20051;-69
2022/11/14 04:49:13;;;;;;;37.37;19.27;;;;;;;12.67;45.54;101411.00;5051284;28;20032;-69
2022/11/14 04:51:39;;;;;;;37.47;19.93;;;;;;;13.11;45.39;101406.19;5051800;28;20039;-69
2022/11/14 04:54:04;;;;;;;35.50;18.73;;;;;;;13.01;46.13;101404.53;5048834;28;20401;-68
2022/11/14 04:56:30;;;;;;;33.23;17.97;;;;;;;12.82;46.09;101399.50;5050693;28;20347;-69
2022/11/14 04:58:55;;;;;;;39.10;19.97;;;;;;;12.85;45.79;101403.84;5051738;28;20039;-69
2022/11/14 05:01:21;;;;;;;36.50;19.53;;;;;;;13.06;45.15;101397.47;5046233;28;20049;-68
2022/11/14 05:03:46;;;;;;;39.97;20.27;;;;;;;13.07;45.28;101400.09;5032477;28;20071;-68
2022/11/14 05:06:12;;;;;;;39.27;19.20;;;;;;;12.90;46.24;101396.81;5032153;28;20025;-68
2022/11/14 05:08:37;;;;;;;38.97;20.80;;;;;;;12.59;46.11;101404.97;5049246;28;20032;-68
2022/11/14 05:11:03;;;;;;;38.53;20.00;;;;;;;13.19;45.48;101390.34;5050997;28;20032;-68
2022/11/14 05:13:28;;;;;;;39.07;20.93;;;;;;;12.82;46.08;101382.91;5052392;28;20036;-68
2022/11/14 05:15:58;;;;;;;40.27;20.43;;;;;;;12.59;46.62;101385.75;5082620;28;20055;-69
2022/11/14 05:18:24;;;;;;;36.20;20.20;;;;;;;12.35;46.45;101377.19;5048975;28;20094;-68
2022/11/14 05:20:49;;;;;;;43.47;20.80;;;;;;;12.57;46.64;101377.91;5050802;28;20397;-68
2022/11/14 05:23:20;;;;;;;41.00;21.13;;;;;;;12.65;46.55;101376.06;5050061;28;20561;-68
2022/11/14 05:25:46;;;;;;;44.70;21.10;;;;;;;13.03;45.45;101380.00;5051826;28;20124;-68
2022/11/14 05:28:11;;;;;;;41.67;20.97;;;;;;;12.83;45.12;101372.38;5048615;28;20159;-68
2022/11/14 05:30:36;;;;;;;44.23;22.90;;;;;;;12.78;45.78;101365.44;5049294;28;20047;-68
2022/11/14 05:33:02;;;;;;;42.20;21.47;;;;;;;12.41;46.43;101371.91;5050020;28;20033;-68
2022/11/14 05:35:27;;;;;;;41.47;21.50;;;;;;;12.62;46.47;101375.22;5051796;28;20195;-68
2022/11/14 05:37:53;;;;;;;45.33;21.67;;;;;;;12.70;46.59;101368.16;5049095;28;20029;-68
2022/11/14 05:40:18;;;;;;;44.87;22.63;;;;;;;12.80;45.87;101359.28;5050065;28;20501;-68
2022/11/14 05:42:43;;;;;;;47.57;22.20;;;;;;;12.80;45.92;101353.19;5048954;28;20039;-68
2022/11/14 05:45:09;;;;;;;43.20;21.90;;;;;;;12.59;46.18;101352.50;5050489;28;20059;-68
2022/11/14 05:47:35;;;;;;;44.83;22.03;;;;;;;12.21;46.64;101358.97;5049568;28;20033;-69
2022/11/14 05:50:00;;;;;;;48.13;21.70;;;;;;;12.68;46.56;101364.66;5050308;28;20807;-69
2022/11/14 05:52:26;;;;;;;40.00;20.97;;;;;;;12.39;46.84;101366.69;5049576;28;20512;-68
2022/11/14 05:54:51;;;;;;;44.73;21.97;;;;;;;12.79;45.75;101359.28;5050189;28;20025;-68
2022/11/14 05:57:16;;;;;;;43.20;21.47;;;;;;;12.34;46.94;101360.63;5050222;28;20473;-68
2022/11/14 05:59:42;;;;;;;43.33;21.70;;;;;;;12.64;45.90;101358.59;5048971;28;20416;-68
2022/11/14 06:02:07;;;;;;;51.07;23.40;;;;;;;12.36;46.28;101358.88;5050077;28;20052;-68
2022/11/14 06:04:33;;;;;;;46.50;23.07;;;;;;;12.60;45.97;101351.63;5049034;28;20029;-68
2022/11/14 06:06:58;;;;;;;44.07;21.63;;;;;;;12.39;46.40;101353.59;5050964;28;20452;-69
2022/11/14 06:09:23;;;;;;;48.67;22.10;;;;;;;11.93;46.98;101359.16;5049971;28;20021;-68
2022/11/14 06:11:49;;;;;;;51.80;24.23;;;;;;;11.64;48.75;101362.84;5049396;28;20128;-68
2022/11/14 06:14:14;;;;;;;43.47;22.63;;;;;;;12.09;47.77;101353.84;5049339;28;20039;-68
2022/11/14 06:16:39;;;;;;;47.30;23.13;;;;;;;12.53;46.15;101360.47;5049664;28;20029;-68
2022/11/14 06:19:05;;;;;;;45.23;22.73;;;;;;;11.97;47.25;101376.63;5050356;28;20106;-69
2022/11/14 06:21:30;;;;;;;52.03;24.27;;;;;;;12.53;46.76;101357.84;5049850;28;20522;-68
2022/11/14 06:23:56;;;;;;;45.63;24.30;;;;;;;12.27;46.90;101356.31;5049500;28;20033;-68
2022/11/14 06:26:23;;;;;;;53.77;24.70;;;;;;;12.47;46.94;101363.97;5048752;28;20025;-69
2022/11/14 06:28:50;;;;;;;50.17;22.80;;;;;;;12.49;46.06;101369.25;5050870;28;20029;-68
2022/11/14 06:31:17;;;;;;;48.53;23.23;;;;;;;12.65;46.20;101365.59;5049488;28;20029;-68
2022/11/14 06:33:43;;;;;;;56.13;25.90;;;;;;;12.72;45.86;101351.50;5048709;28;20540;-69
2022/11/14 06:36:09;;;;;;;46.53;23.77;;;;;;;12.78;45.44;101349.72;5049790;28;20110;-68
2022/11/14 06:38:37;;;;;;;52.33;26.37;;;;;;;12.36;46.42;101356.25;5047983;28;20052;-68
2022/11/14 06:41:08;;;;;;;62.37;28.77;;;;;;;11.56;47.92;101369.88;5052098;28;20032;-68
2022/11/14 06:43:34;;;;;;;58.10;27.33;;;;;;;11.95;47.13;101367.94;5050959;28;20119;-69
2022/11/14 06:46:00;;;;;;;61.20;27.97;;;;;;;12.30;47.25;101358.91;5048260;28;20033;-69
2022/11/14 06:48:26;;;;;;;52.10;25.23;;;;;;;12.47;46.26;101355.25;5048751;28;20029;-69
2022/11/14 06:50:53;;;;;;;52.80;26.50;;;;;;;12.34;46.99;101365.00;5048717;28;20394;-69
2022/11/14 06:53:19;;;;;;;57.53;27.40;;;;;;;12.10;47.09;101369.53;5048634;28;20048;-69
2022/11/14 06:56:09;;;;;;;49.50;23.90;;;;;;;12.46;46.51;101364.00;5050326;28;20033;-69
2022/11/14 06:58:37;;;;;;;52.63;24.07;;;;;;;11.68;47.96;101369.81;5049721;28;20033;-69
2022/11/14 07:01:17;;;;;;;53.57;24.47;;;;;;;12.25;46.71;101371.16;5048541;28;20045;-69
2022/11/14 07:03:43;;;;;;;57.83;24.60;;;;;;;11.77;47.60;101368.00;5049424;28;20039;-69
2022/11/14 07:06:11;;;;;;;56.17;25.80;;;;;;;12.28;46.09;101365.03;5047495;28;20039;-68
2022/11/14 07:08:36;;;;;;;46.93;22.40;;;;;;;12.26;45.79;101367.69;5047401;28;20032;-68
2022/11/14 07:11:07;;;;;;;50.63;24.40;;;;;;;11.96;47.21;101374.88;5049002;28;20486;-68
2022/11/14 07:13:33;;;;;;;50.10;23.90;;;;;;;12.08;46.82;101362.59;5052079;28;20112;-69
2022/11/14 07:16:00;;;;;;;44.50;22.13;;;;;;;12.36;46.48;101369.34;5048059;28;20401;-68
2022/11/14 07:18:25;;;;;;;49.23;23.50;;;;;;;11.72;47.24;101360.19;5051616;28;20060;-68
2022/11/14 07:20:58;;;;;;;44.30;22.33;;;;;;;11.99;47.09;101367.03;5048759;28;20118;-68
2022/11/14 07:23:25;;;;;;;52.23;22.90;;;;;;;11.97;47.42;101355.69;5051790;28;20040;-69
2022/11/14 07:25:50;;;;;;;51.10;24.97;;;;;;;11.75;47.54;101351.44;5050626;28;20064;-69
2022/11/14 07:28:15;;;;;;;56.60;24.50;;;;;;;11.68;47.39;101356.72;5051569;28;20087;-69
2022/11/14 07:30:41;;;;;;;49.43;23.10;;;;;;;12.10;47.13;101350.34;5051688;28;20041;-68
2022/11/14 07:33:06;;;;;;;51.53;23.63;;;;;;;12.01;46.72;101353.91;5053552;28;20036;-68
2022/11/14 07:35:32;;;;;;;57.37;25.10;;;;;;;11.74;47.17;101349.69;5052386;28;20056;-68
2022/11/14 07:38:01;;;;;;;48.40;23.37;;;;;;;12.33;46.39;101348.38;5078759;28;20029;-68
2022/11/14 07:40:27;;;;;;;52.83;22.83;;;;;;;12.45;46.56;101341.31;5048839;28;20040;-68
2022/11/14 07:42:57;;;;;;;48.00;22.23;;;;;;;11.78;47.39;101343.56;5051290;28;20036;-69
2022/11/14 07:45:23;;;;;;;48.07;24.23;;;;;;;12.09;46.74;101348.59;5049026;28;20477;-68
2022/11/14 07:47:48;;;;;;;50.30;24.03;;;;;;;11.91;47.08;101350.47;5046870;28;20036;-68
2022/11/14 07:50:13;;;;;;;50.83;24.23;;;;;;;11.86;47.26;101349.63;5055109;28;20509;-68
2022/11/14 07:52:39;;;;;;;52.30;24.77;;;;;;;11.41;48.74;101354.25;5052608;28;20111;-68
2022/11/14 07:55:04;;;;;;;51.37;24.90;;;;;;;11.25;49.72;101350.84;5054276;28;20024;-68
2022/11/14 07:57:30;;;;;;;53.73;25.77;;;;;;;11.37;48.76;101343.81;5053207;28;20020;-69
2022/11/14 07:59:55;;;;;;;49.63;23.70;;;;;;;11.86;47.94;101341.75;5056827;28;20621;-68
2022/11/14 08:02:20;;;;;;;52.60;23.00;;;;;;;12.27;47.22;101337.97;5058106;28;20035;-68
2022/11/14 08:04:46;;;;;;;54.70;25.20;;;;;;;11.89;47.78;101336.50;5052065;28;20040;-68
2022/11/14 08:07:11;;;;;;;52.70;23.70;;;;;;;11.56;48.08;101338.47;5082432;28;20044;-68
2022/11/14 08:09:36;;;;;;;50.77;24.33;;;;;;;11.79;48.27;101340.06;5050029;28;20021;-68
2022/11/14 08:12:02;;;;;;;45.00;21.63;;;;;;;12.18;47.65;101327.56;5056375;28;20036;-68
2022/11/14 08:14:27;;;;;;;41.63;21.27;;;;;;;12.33;47.61;101327.41;5052415;28;20565;-68
2022/11/14 08:16:53;;;;;;;50.53;23.70;;;;;;;11.54;47.91;101328.00;5050646;28;20025;-68
2022/11/14 08:19:18;;;;;;;46.33;22.20;;;;;;;11.46;48.46;101327.19;5063974;28;20405;-68
2022/11/14 08:21:44;;;;;;;47.97;23.53;;;;;;;11.44;48.75;101328.06;5068859;28;20492;-68
2022/11/14 08:24:09;;;;;;;44.80;22.53;;;;;;;11.97;48.12;101329.47;5048104;28;20037;-68
2022/11/14 08:26:35;;;;;;;41.63;21.87;;;;;;;12.45;47.26;101325.56;5049341;28;20036;-68
2022/11/14 08:29:00;;;;;;;51.13;22.90;;;;;;;12.09;47.82;101322.38;5049567;28;20094;-68
2022/11/14 08:31:26;;;;;;;50.47;23.77;;;;;;;12.22;47.66;101318.78;5050753;28;20040;-68
2022/11/14 08:33:51;;;;;;;47.73;21.60;;;;;;;12.20;47.62;101315.31;5051965;28;20074;-69
2022/11/14 08:36:17;;;;;;;43.83;21.73;;;;;;;12.37;47.39;101318.63;5048817;28;20029;-68
2022/11/14 08:38:42;;;;;;;43.47;21.63;;;;;;;12.27;48.27;101305.63;5053589;28;20025;-68
2022/11/14 08:41:08;;;;;;;40.80;21.53;;;;;;;12.29;47.73;101304.72;5053008;28;20186;-69
2022/11/14 08:43:33;;;;;;;41.23;21.03;;;;;;;12.01;49.12;101299.75;5050078;28;20036;-68
2022/11/14 08:46:00;;;;;;;38.53;19.50;;;;;;;12.42;47.91;101294.13;5049746;28;20037;-68
2022/11/14 08:48:25;;;;;;;42.03;20.53;;;;;;;12.81;46.48;101297.22;5046603;28;20061;-68
2022/11/14 08:50:51;;;;;;;38.73;19.30;;;;;;;12.24;47.91;101290.81;5032615;28;20456;-68
2022/11/14 08:53:16;;;;;;;39.00;21.03;;;;;;;12.52;47.96;101288.78;5045648;28;20037;-68
2022/11/14 08:55:46;;;;;;;36.27;20.03;;;;;;;12.61;47.37;101290.44;5055897;28;20033;-68
2022/11/14 08:58:11;;;;;;;40.00;20.33;;;;;;;13.06;46.54;101285.53;5071087;28;20025;-68
2022/11/14 09:00:36;;;;;;;39.73;19.57;;;;;;;13.01;46.46;101284.72;5047075;28;20057;-68
2022/11/14 09:03:13;;;;;;;37.97;19.27;;;;;;;12.67;48.13;101290.34;5050515;28;20029;-68
2022/11/14 09:05:39;;;;;;;37.50;18.97;;;;;;;12.28;48.03;101287.28;5051058;28;20033;-68
2022/11/14 09:08:05;;;;;;;31.50;18.20;;;;;;;12.77;48.02;101285.00;5059778;28;20093;-68
2022/11/14 09:10:31;;;;;;;34.67;18.70;;;;;;;12.71;48.47;101281.56;5050281;28;20028;-68
2022/11/14 09:13:00;;;;;;;33.87;18.30;;;;;;;11.85;51.43;101279.78;5048666;28;20033;-68
2022/11/14 09:15:30;;;;;;;34.90;17.27;;;;;;;12.25;50.06;101275.97;5049455;28;20033;-68
2022/11/14 09:17:56;;;;;;;38.53;18.83;;;;;;;13.31;47.75;101266.81;5054363;28;20044;-68
2022/11/14 09:20:23;;;;;;;34.60;18.80;;;;;;;13.89;45.84;101270.31;5050786;28;20485;-70
2022/11/14 09:22:51;;;;;;;30.60;18.40;;;;;;;13.52;46.66;101280.56;5052426;28;20036;-68
2022/11/14 09:25:16;;;;;;;32.60;18.50;;;;;;;13.79;46.74;101279.22;5048808;28;20017;-69
2022/11/14 09:27:42;;;;;;;35.10;18.17;;;;;;;13.63;46.80;101281.25;5043442;28;20616;-68
2022/11/14 09:30:08;;;;;;;35.13;18.00;;;;;;;13.84;45.98;101279.16;5048765;28;20481;-69
2022/11/14 09:32:34;;;;;;;30.17;16.73;;;;;;;13.91;46.20;101278.16;5051410;28;20178;-68
2022/11/14 09:34:59;;;;;;;28.57;16.67;;;;;;;13.23;47.76;101282.66;5047163;28;20561;-68
2022/11/14 09:37:25;;;;;;;28.10;16.37;;;;;;;13.89;47.02;101266.81;5048808;28;20029;-68
2022/11/14 09:39:50;;;;;;;29.47;16.60;;;;;;;14.29;45.64;101263.47;5048941;28;20509;-69
2022/11/14 09:42:33;;;;;;;29.53;16.20;;;;;;;14.71;44.87;101266.22;5049766;28;20093;-68
2022/11/14 09:45:01;;;;;;;24.75;16.73;;;;;;;16.14;42.77;101255.03;5047704;28;20051;-69
2022/11/14 09:47:40;;;;;;;27.73;16.13;;;;;;;16.68;41.54;101253.53;5051897;28;20498;-69
2022/11/14 09:50:10;;;;;;;22.27;14.37;;;;;;;18.00;42.43;101260.91;5048352;28;20112;-69
2022/11/14 09:52:43;;;;;;;24.20;13.63;;;;;;;17.36;40.32;101265.59;5046127;28;20029;-69
2022/11/14 09:55:11;;;;;;;22.37;12.30;;;;;;;16.91;41.51;101266.09;5049477;28;20066;-69
2022/11/14 09:57:39;;;;;;;21.73;12.73;;;;;;;16.66;41.35;101250.94;5048708;28;20071;-68
2022/11/14 10:00:19;;;;;;;19.43;12.37;;;;;;;16.65;41.65;101249.22;5050326;28;20044;-68
2022/11/14 10:03:19;;;;;;;20.20;11.23;;;;;;;17.11;41.28;101242.59;5049566;28;20020;-68
2022/11/14 10:05:52;;;;;;;20.07;11.97;;;;;;;16.66;41.66;101240.38;5047980;28;20021;-68
2022/11/14 10:08:39;;;;;;;20.53;12.57;;;;;;;16.78;41.43;101240.03;5047551;28;20106;-68
2022/11/14 10:11:27;;;;;;;19.73;12.50;;;;;;;16.55;41.72;101239.81;5047511;28;20070;-68
2022/11/14 10:14:21;;;;;;;20.40;11.93;;;;;;;16.65;41.59;101233.41;5067705;28;20417;-68
2022/11/14 10:16:55;;;;;;;17.53;11.60;;;;;;;16.88;40.98;101229.19;5052352;28;20056;-68
2022/11/14 10:19:21;;;;;;;22.77;12.80;;;;;;;16.78;41.12;101232.09;5045941;28;20056;-68
2022/11/14 10:22:22;;;;;;;20.40;11.67;;;;;;;16.79;41.73;101225.91;5048653;28;20068;-68
2022/11/14 10:25:01;;;;;;;21.77;11.93;;;;;;;16.49;42.12;101234.75;5042930;28;20029;-69
2022/11/14 10:27:54;;;;;;;21.37;11.73;;;;;;;16.77;41.85;101235.66;5047706;28;20036;-68
2022/11/14 10:30:20;;;;;;;22.27;13.38;;;;;;;16.59;41.78;101239.69;5040849;28;20639;-67
2022/11/14 10:32:48;;;;;;;19.07;12.43;;;;;;;17.95;40.19;101234.63;5050631;28;20036;-67
2022/11/14 10:35:17;;;;;;;19.47;11.97;;;;;;;17.70;40.35;101240.72;5058092;28;20395;-67
2022/11/14 10:38:04;;;;;;;22.53;12.70;;;;;;;18.36;40.07;101232.31;5048858;28;20040;-67
2022/11/14 10:40:38;;;;;;;18.53;11.57;;;;;;;17.73;40.28;101230.03;5044791;28;20116;-67
2022/11/14 10:43:31;;;;;;;22.13;12.63;;;;;;;17.00;41.14;101234.13;5051329;28;20028;-67
2022/11/14 10:46:12;;;;;;;15.68;10.77;;;;;;;17.30;41.09;101228.81;5037172;28;20061;-67
2022/11/14 10:48:45;;;;;;;20.53;12.10;;;;;;;17.59;41.01;101227.00;5047059;28;20048;-66
2022/11/14 10:51:37;;;;;;;23.43;12.27;;;;;;;16.62;42.22;101215.88;5050634;28;20029;-67
2022/11/14 10:54:08;;;;;;;20.03;12.40;;;;;;;16.30;43.25;101216.78;5053071;28;20028;-67
2022/11/14 10:56:33;;;;;;;16.67;11.50;;;;;;;17.06;42.06;101201.38;5050388;28;20114;-67
2022/11/14 10:58:58;;;;;;;17.93;12.73;;;;;;;17.32;42.09;101203.19;5051383;28;20028;-67
2022/11/14 11:01:45;;;;;;;17.77;11.60;;;;;;;17.55;41.40;101194.53;5052379;28;20049;-67
2022/11/14 11:04:20;;;;;;;20.57;12.00;;;;;;;17.87;41.36;101191.69;5047566;28;20087;-67
2022/11/14 11:06:50;;;;;;;18.47;10.93;;;;;;;17.26;42.11;101203.41;5053250;28;20025;-67
2022/11/14 11:12:08;;;;;;;17.43;11.00;;;;;;;17.48;41.53;101194.78;5050690;28;20433;-67
2022/11/14 11:14:34;;;;;;;15.90;10.83;;;;;;;18.02;39.88;101182.41;5052039;28;20453;-66